Time;durP1;ratioP1;P1;durP2;ratioP2;P2;SDS_P1;SDS_P2;PMS_P1;PMS_P2;Temp;Humidity;BMP_temperature;BMP_pressure;BME280_temperature;BME280_humidity;BME280_pressure;Samples;Min_cycle;Max_cycle;Signal;HPM_P1;HPM_P2
2023/02/07 00:00:24;;;;;;;56.00;19.45;;;;;;;;;;5042113;28;20054;-80
2023/02/07 00:02:54;;;;;;;65.63;21.40;;;;;;;;;;5038356;28;20547;-79
2023/02/07 00:05:21;;;;;;;62.92;19.60;;;;;;;;;;5040141;28;20046;-79
2023/02/07 00:07:47;;;;;;;64.43;20.77;;;;;;;;;;5040799;28;20437;-79
2023/02/07 00:10:14;;;;;;;58.58;20.27;;;;;;;;;;5042227;28;20053;-79
2023/02/07 00:12:41;;;;;;;58.08;19.80;;;;;;;;;;4990917;28;20569;-80
2023/02/07 00:15:07;;;;;;;50.42;18.25;;;;;;;;;;5020826;28;20415;-79
2023/02/07 00:17:34;;;;;;;56.85;18.15;;;;;;;;;;5021049;28;20133;-81
2023/02/07 00:20:00;;;;;;;50.47;17.88;;;;;;;;;;5022188;28;20057;-80
2023/02/07 00:22:27;;;;;;;57.90;19.30;;;;;;;;;;5021763;28;20052;-80
2023/02/07 00:24:53;;;;;;;55.90;17.52;;;;;;;;;;5021516;28;20062;-80
2023/02/07 00:27:19;;;;;;;50.78;16.38;;;;;;;;;;5004049;28;20064;-79
2023/02/07 00:29:46;;;;;;;47.08;16.40;;;;;;;;;;5021656;28;20056;-79
2023/02/07 00:32:12;;;;;;;52.10;17.98;;;;;;;;;;5021080;28;20592;-79
2023/02/07 00:34:39;;;;;;;47.65;16.45;;;;;;;;;;5022826;28;20050;-81
2023/02/07 00:37:07;;;;;;;44.90;16.55;;;;;;;;;;5022900;28;20373;-80
2023/02/07 00:39:33;;;;;;;44.88;16.10;;;;;;;;;;5021874;28;20050;-81
2023/02/07 00:41:59;;;;;;;38.58;14.60;;;;;;;;;;5023233;28;20064;-80
2023/02/07 00:44:26;;;;;;;44.22;15.00;;;;;;;;;;5022349;28;20065;-80
2023/02/07 00:46:52;;;;;;;39.80;15.15;;;;;;;;;;5022522;28;20470;-78
2023/02/07 00:49:19;;;;;;;44.17;14.93;;;;;;;;;;5020415;28;20050;-80
2023/02/07 00:51:45;;;;;;;43.30;14.05;;;;;;;;;;5034841;28;20045;-80
2023/02/07 00:54:12;;;;;;;50.67;15.60;;;;;;;;;;5043222;28;20050;-79
2023/02/07 00:56:38;;;;;;;41.85;15.27;;;;;;;;;;5046755;28;20472;-80
2023/02/07 00:59:05;;;;;;;40.40;14.18;;;;;;;;;;5042996;28;20049;-80
2023/02/07 01:01:31;;;;;;;42.33;15.85;;;;;;;;;;5031902;28;20049;-81
2023/02/07 01:03:58;;;;;;;38.88;14.32;;;;;;;;;;5024981;28;20050;-80
2023/02/07 01:06:26;;;;;;;48.80;15.95;;;;;;;;;;5022457;28;20094;-80
2023/02/07 01:08:57;;;;;;;45.50;15.75;;;;;;;;;;5020226;28;20137;-79
2023/02/07 01:11:25;;;;;;;44.20;15.18;;;;;;;;;;5021622;28;20105;-79
2023/02/07 01:13:51;;;;;;;49.75;16.42;;;;;;;;;;5002358;28;20061;-78
2023/02/07 01:16:18;;;;;;;50.33;16.60;;;;;;;;;;4998814;28;20054;-79
2023/02/07 01:18:44;;;;;;;40.83;14.90;;;;;;;;;;5014661;28;20410;-79
2023/02/07 01:21:15;;;;;;;46.88;16.63;;;;;;;;;;5014353;28;20060;-78
2023/02/07 01:23:41;;;;;;;43.25;15.18;;;;;;;;;;5017360;28;20050;-80
2023/02/07 01:26:09;;;;;;;44.53;15.85;;;;;;;;;;5021663;28;20121;-79
2023/02/07 01:28:36;;;;;;;49.45;16.60;;;;;;;;;;5020904;28;20060;-80
2023/02/07 01:31:07;;;;;;;47.25;16.35;;;;;;;;;;5020185;28;20053;-79
2023/02/07 01:33:36;;;;;;;56.38;16.13;;;;;;;;;;5003227;28;20054;-79
2023/02/07 01:36:06;;;;;;;65.22;19.40;;;;;;;;;;5020514;28;20053;-80
2023/02/07 01:38:33;;;;;;;63.53;20.08;;;;;;;;;;5024396;28;20109;-81
2023/02/07 01:40:59;;;;;;;56.08;18.38;;;;;;;;;;5026433;28;20049;-80
2023/02/07 01:43:26;;;;;;;61.10;18.83;;;;;;;;;;5019661;28;20042;-79
2023/02/07 01:45:52;;;;;;;64.43;19.70;;;;;;;;;;5020306;28;20064;-81
2023/02/07 01:48:27;;;;;;;61.40;18.20;;;;;;;;;;5023691;28;20038;-81
2023/02/07 01:50:55;;;;;;;60.55;19.73;;;;;;;;;;5033235;28;20068;-81
2023/02/07 01:53:23;;;;;;;57.67;16.83;;;;;;;;;;5038706;28;20049;-80
2023/02/07 01:55:51;;;;;;;41.22;14.52;;;;;;;;;;5022595;28;20056;-80
2023/02/07 01:58:18;;;;;;;37.22;13.75;;;;;;;;;;5039378;28;20057;-81
2023/02/07 02:00:45;;;;;;;43.55;15.10;;;;;;;;;;5040477;28;20059;-79
2023/02/07 02:03:11;;;;;;;39.85;13.88;;;;;;;;;;5038649;28;20491;-80
2023/02/07 02:05:40;;;;;;;43.55;14.52;;;;;;;;;;5039448;28;20068;-80
2023/02/07 02:08:07;;;;;;;44.95;14.48;;;;;;;;;;5029894;28;20045;-80
2023/02/07 02:10:45;;;;;;;39.15;13.15;;;;;;;;;;5022367;28;20229;-81
2023/02/07 02:13:32;;;;;;;42.92;14.18;;;;;;;;;;5022007;28;20390;-80
2023/02/07 02:16:15;;;;;;;34.65;13.00;;;;;;;;;;5022499;28;20054;-79
2023/02/07 02:18:51;;;;;;;35.15;12.65;;;;;;;;;;5023267;28;20518;-80
2023/02/07 02:21:17;;;;;;;39.67;13.38;;;;;;;;;;5019657;28;20050;-78
2023/02/07 02:23:47;;;;;;;36.15;12.90;;;;;;;;;;5019177;28;20072;-80
2023/02/07 02:26:32;;;;;;;44.92;14.25;;;;;;;;;;5014070;28;20056;-79
2023/02/07 02:29:17;;;;;;;42.05;12.73;;;;;;;;;;5011265;28;20505;-78
2023/02/07 02:31:46;;;;;;;31.35;11.30;;;;;;;;;;5011671;28;20046;-79
2023/02/07 02:34:24;;;;;;;40.70;14.25;;;;;;;;;;5011634;28;20054;-78
2023/02/07 02:37:12;;;;;;;37.38;13.25;;;;;;;;;;5011272;28;20049;-79
2023/02/07 02:39:41;;;;;;;39.47;13.35;;;;;;;;;;5010120;28;20049;-78
2023/02/07 02:42:17;;;;;;;37.58;12.95;;;;;;;;;;5014585;28;20058;-80
2023/02/07 02:44:46;;;;;;;33.95;13.20;;;;;;;;;;5013261;28;20064;-78
2023/02/07 02:47:13;;;;;;;43.45;13.85;;;;;;;;;;5013662;28;20060;-81
2023/02/07 02:49:40;;;;;;;40.30;13.48;;;;;;;;;;5020014;28;20053;-81
2023/02/07 02:52:06;;;;;;;45.22;14.75;;;;;;;;;;5017886;28;20057;-79
2023/02/07 02:54:34;;;;;;;38.65;12.90;;;;;;;;;;5015934;28;20402;-79
2023/02/07 02:57:03;;;;;;;43.55;14.77;;;;;;;;;;5016570;28;20046;-80
2023/02/07 02:59:36;;;;;;;40.60;13.10;;;;;;;;;;5013005;28;20079;-78
2023/02/07 03:02:09;;;;;;;36.58;12.80;;;;;;;;;;5012760;28;20050;-78
2023/02/07 03:04:41;;;;;;;38.38;13.45;;;;;;;;;;5014913;28;20050;-78
2023/02/07 03:07:20;;;;;;;38.42;13.45;;;;;;;;;;5015437;28;20100;-79
2023/02/07 03:09:53;;;;;;;39.67;12.35;;;;;;;;;;4997474;28;20146;-80
2023/02/07 03:12:19;;;;;;;36.42;12.48;;;;;;;;;;4995080;28;20053;-78
2023/02/07 03:15:01;;;;;;;37.03;12.35;;;;;;;;;;4988871;28;20054;-79
2023/02/07 03:17:32;;;;;;;48.83;14.88;;;;;;;;;;4996077;28;20080;-79
2023/02/07 03:20:14;;;;;;;36.00;12.98;;;;;;;;;;4997451;28;20490;-79
2023/02/07 03:22:42;;;;;;;35.67;13.55;;;;;;;;;;5015218;28;20057;-80
2023/02/07 03:25:09;;;;;;;32.15;11.73;;;;;;;;;;5015591;28;20049;-80
2023/02/07 03:27:36;;;;;;;39.55;13.23;;;;;;;;;;5018380;28;20114;-80
2023/02/07 03:30:07;;;;;;;42.90;13.70;;;;;;;;;;5004420;28;20073;-79
2023/02/07 03:32:36;;;;;;;40.90;13.82;;;;;;;;;;5020659;28;20110;-80
2023/02/07 03:35:12;;;;;;;38.45;13.75;;;;;;;;;;5018737;28;20080;-80
2023/02/07 03:37:41;;;;;;;36.38;12.57;;;;;;;;;;5018246;28;20054;-81
2023/02/07 03:40:08;;;;;;;50.28;14.05;;;;;;;;;;5005016;28;20101;-81
2023/02/07 03:42:44;;;;;;;51.78;15.55;;;;;;;;;;5026207;28;20050;-81
2023/02/07 03:45:13;;;;;;;36.15;12.73;;;;;;;;;;5023124;28;20046;-80
2023/02/07 03:47:39;;;;;;;40.20;12.65;;;;;;;;;;5019611;28;20050;-80
2023/02/07 03:50:05;;;;;;;42.05;14.15;;;;;;;;;;5029044;28;20042;-79
2023/02/07 03:52:32;;;;;;;39.55;13.18;;;;;;;;;;5018899;28;20117;-80
2023/02/07 03:55:00;;;;;;;47.25;15.05;;;;;;;;;;5045077;28;20049;-79
2023/02/07 03:57:26;;;;;;;51.60;15.35;;;;;;;;;;5044373;28;20053;-80
2023/02/07 03:59:53;;;;;;;45.67;13.90;;;;;;;;;;5044274;28;20502;-79
2023/02/07 04:02:19;;;;;;;38.40;13.27;;;;;;;;;;5044004;28;20045;-79
2023/02/07 04:04:45;;;;;;;42.08;13.95;;;;;;;;;;5044844;28;20196;-79
2023/02/07 04:07:12;;;;;;;35.90;12.88;;;;;;;;;;5045237;28;20053;-78
2023/02/07 04:09:38;;;;;;;34.70;12.57;;;;;;;;;;5040248;28;20252;-77
2023/02/07 04:12:05;;;;;;;40.45;13.85;;;;;;;;;;5042513;28;20065;-79
2023/02/07 04:14:31;;;;;;;34.50;12.35;;;;;;;;;;5030138;28;20050;-78
2023/02/07 04:16:58;;;;;;;36.25;12.65;;;;;;;;;;5022976;28;20064;-78
2023/02/07 04:19:26;;;;;;;36.63;12.27;;;;;;;;;;5015882;28;20562;-78
2023/02/07 04:21:52;;;;;;;34.78;12.57;;;;;;;;;;5018645;28;20052;-78
2023/02/07 04:24:19;;;;;;;37.40;13.48;;;;;;;;;;5018217;28;20046;-79
2023/02/07 04:26:45;;;;;;;44.95;13.95;;;;;;;;;;5018322;28;20069;-78
2023/02/07 04:29:12;;;;;;;36.13;12.13;;;;;;;;;;5015254;28;20485;-79
2023/02/07 04:31:39;;;;;;;37.10;13.00;;;;;;;;;;5003612;28;20054;-79
2023/02/07 04:34:05;;;;;;;34.63;12.43;;;;;;;;;;5020517;28;20050;-80
2023/02/07 04:36:32;;;;;;;42.65;13.20;;;;;;;;;;5022935;28;20074;-79
2023/02/07 04:38:58;;;;;;;34.75;12.43;;;;;;;;;;5006421;28;20081;-79
2023/02/07 04:41:24;;;;;;;39.47;12.55;;;;;;;;;;5022814;28;20050;-79
2023/02/07 04:43:51;;;;;;;35.10;12.45;;;;;;;;;;5019905;28;20046;-78
2023/02/07 04:46:17;;;;;;;38.55;11.93;;;;;;;;;;5018212;28;20050;-78
2023/02/07 04:48:44;;;;;;;38.10;12.88;;;;;;;;;;5017471;28;20042;-80
2023/02/07 04:51:10;;;;;;;33.55;12.38;;;;;;;;;;5028567;28;20045;-78
2023/02/07 04:53:37;;;;;;;36.78;13.73;;;;;;;;;;5013077;28;20050;-78
2023/02/07 04:56:03;;;;;;;34.65;11.80;;;;;;;;;;5017544;28;20113;-78
2023/02/07 04:58:30;;;;;;;32.78;12.05;;;;;;;;;;5016251;28;20053;-79
2023/02/07 05:00:56;;;;;;;38.15;13.95;;;;;;;;;;5014048;28;20458;-80
2023/02/07 05:03:22;;;;;;;38.22;13.25;;;;;;;;;;5017026;28;20060;-79
2023/02/07 05:05:51;;;;;;;37.15;13.02;;;;;;;;;;5017311;28;20054;-79
2023/02/07 05:08:17;;;;;;;39.10;13.00;;;;;;;;;;5016406;28;20042;-79
2023/02/07 05:10:44;;;;;;;39.17;13.45;;;;;;;;;;5031517;28;20081;-78
2023/02/07 05:13:11;;;;;;;42.58;13.02;;;;;;;;;;5016081;28;20041;-79
2023/02/07 05:15:37;;;;;;;38.63;13.73;;;;;;;;;;4993620;28;20050;-76
2023/02/07 05:18:04;;;;;;;34.78;12.25;;;;;;;;;;4990320;28;20111;-79
2023/02/07 05:20:31;;;;;;;40.45;13.15;;;;;;;;;;5007789;28;20053;-81
2023/02/07 05:22:57;;;;;;;33.05;12.65;;;;;;;;;;5004365;28;20066;-80
2023/02/07 05:25:24;;;;;;;33.55;12.05;;;;;;;;;;5001879;28;20065;-80
2023/02/07 05:27:50;;;;;;;32.58;11.32;;;;;;;;;;4982873;28;20141;-78
2023/02/07 05:30:17;;;;;;;35.00;12.55;;;;;;;;;;4999118;28;20136;-80
2023/02/07 05:35:28;;;;;;;;;;;;;;;;;;4996453;28;20098;-79
2023/02/07 05:37:54;;;;;;;40.15;12.80;;;;;;;;;;5001946;28;20511;-79
2023/02/07 05:40:21;;;;;;;34.50;11.77;;;;;;;;;;5017638;28;20060;-79
2023/02/07 05:42:50;;;;;;;31.98;11.48;;;;;;;;;;5018126;28;20049;-78
2023/02/07 05:45:16;;;;;;;37.17;12.65;;;;;;;;;;5018412;28;20056;-82
2023/02/07 05:47:43;;;;;;;41.05;11.82;;;;;;;;;;5001521;28;20057;-79
2023/02/07 05:50:09;;;;;;;34.88;11.93;;;;;;;;;;5025674;28;20628;-80
2023/02/07 05:52:36;;;;;;;39.50;12.18;;;;;;;;;;5029662;28;20047;-80
2023/02/07 05:55:03;;;;;;;36.05;12.65;;;;;;;;;;5038459;28;20140;-79
2023/02/07 05:57:29;;;;;;;36.58;12.38;;;;;;;;;;5036702;28;20053;-81
2023/02/07 05:59:56;;;;;;;29.23;11.90;;;;;;;;;;5014065;28;20046;-80
2023/02/07 06:02:23;;;;;;;37.97;12.07;;;;;;;;;;5006407;28;20052;-80
2023/02/07 06:04:49;;;;;;;33.05;11.07;;;;;;;;;;5024120;28;20347;-79
2023/02/07 06:07:16;;;;;;;32.83;11.05;;;;;;;;;;5027327;28;20050;-78
2023/02/07 06:09:43;;;;;;;38.63;12.85;;;;;;;;;;5026583;28;20050;-78
2023/02/07 06:12:09;;;;;;;30.88;11.38;;;;;;;;;;5027898;28;20084;-81
2023/02/07 06:14:36;;;;;;;35.58;12.43;;;;;;;;;;5011265;28;20050;-78
2023/02/07 06:17:02;;;;;;;43.40;13.32;;;;;;;;;;5010559;28;20046;-81
2023/02/07 06:19:29;;;;;;;43.22;12.77;;;;;;;;;;5003904;28;20536;-80
2023/02/07 06:21:55;;;;;;;39.00;12.73;;;;;;;;;;5019995;28;20145;-80
2023/02/07 06:24:21;;;;;;;45.92;13.38;;;;;;;;;;5018028;28;20042;-79
2023/02/07 06:26:48;;;;;;;37.63;14.07;;;;;;;;;;5001397;28;20076;-80
2023/02/07 06:29:15;;;;;;;38.80;13.55;;;;;;;;;;4999066;28;20053;-79
2023/02/07 06:31:41;;;;;;;43.03;15.70;;;;;;;;;;5017734;28;20050;-79
2023/02/07 06:34:07;;;;;;;38.53;13.43;;;;;;;;;;5019186;28;20069;-80
2023/02/07 06:36:34;;;;;;;36.25;13.57;;;;;;;;;;5020178;28;20056;-80
2023/02/07 06:39:00;;;;;;;38.97;12.52;;;;;;;;;;5017285;28;20050;-80
2023/02/07 06:41:27;;;;;;;36.70;13.52;;;;;;;;;;5018572;28;20045;-80
2023/02/07 06:43:53;;;;;;;36.95;12.82;;;;;;;;;;5018242;28;20396;-80
2023/02/07 06:46:19;;;;;;;40.58;13.15;;;;;;;;;;5017219;28;20060;-80
2023/02/07 06:48:46;;;;;;;34.72;12.70;;;;;;;;;;5018107;28;20659;-80
2023/02/07 06:51:12;;;;;;;42.95;14.93;;;;;;;;;;5027004;28;20159;-79
2023/02/07 06:53:39;;;;;;;37.00;12.68;;;;;;;;;;5036065;28;20046;-80
2023/02/07 06:56:05;;;;;;;39.67;12.73;;;;;;;;;;5037778;28;20056;-81
2023/02/07 06:58:33;;;;;;;41.00;12.52;;;;;;;;;;5019623;28;20068;-80
2023/02/07 07:01:02;;;;;;;38.88;13.52;;;;;;;;;;5036628;28;20041;-81
2023/02/07 07:03:29;;;;;;;38.95;13.40;;;;;;;;;;5036716;28;20485;-79
2023/02/07 07:05:56;;;;;;;38.58;12.95;;;;;;;;;;5037841;28;20272;-80
2023/02/07 07:08:24;;;;;;;39.17;13.38;;;;;;;;;;5036457;28;20494;-80
2023/02/07 07:10:50;;;;;;;45.78;14.35;;;;;;;;;;5038772;28;20137;-80
2023/02/07 07:13:17;;;;;;;37.13;14.65;;;;;;;;;;5034973;28;20050;-80
2023/02/07 07:15:43;;;;;;;37.38;13.35;;;;;;;;;;5016518;28;20045;-80
2023/02/07 07:18:10;;;;;;;38.53;13.98;;;;;;;;;;5001759;28;20063;-80
2023/02/07 07:20:36;;;;;;;38.20;13.70;;;;;;;;;;5004425;28;20052;-79
2023/02/07 07:23:03;;;;;;;38.65;13.68;;;;;;;;;;5021191;28;20050;-79
2023/02/07 07:25:29;;;;;;;35.80;13.38;;;;;;;;;;5022220;28;20046;-80
2023/02/07 07:27:57;;;;;;;42.08;14.00;;;;;;;;;;5021276;28;20053;-80
2023/02/07 07:30:24;;;;;;;37.60;13.27;;;;;;;;;;5021263;28;20085;-80
2023/02/07 07:32:50;;;;;;;35.40;13.75;;;;;;;;;;5002758;28;20054;-79
2023/02/07 07:35:17;;;;;;;37.33;13.95;;;;;;;;;;5013028;28;20046;-80
2023/02/07 07:37:44;;;;;;;38.83;13.93;;;;;;;;;;4993754;28;20531;-79
2023/02/07 07:40:11;;;;;;;37.92;14.25;;;;;;;;;;4995883;28;20092;-78
2023/02/07 07:42:37;;;;;;;37.92;14.40;;;;;;;;;;5002072;28;20113;-78
2023/02/07 07:45:04;;;;;;;40.03;14.95;;;;;;;;;;4997325;28;20052;-78
2023/02/07 07:47:30;;;;;;;42.90;15.13;;;;;;;;;;4994098;28;20346;-79
2023/02/07 07:49:57;;;;;;;41.05;15.05;;;;;;;;;;5020854;28;20045;-79
2023/02/07 07:52:23;;;;;;;42.58;14.43;;;;;;;;;;5031529;28;20052;-79
2023/02/07 07:54:50;;;;;;;44.67;15.48;;;;;;;;;;5042010;28;20087;-79
2023/02/07 07:57:16;;;;;;;40.28;15.50;;;;;;;;;;5038746;28;20136;-79
2023/02/07 07:59:45;;;;;;;39.53;15.15;;;;;;;;;;5035221;28;20045;-79
2023/02/07 08:02:11;;;;;;;47.70;17.17;;;;;;;;;;5035755;28;20136;-78
2023/02/07 08:04:38;;;;;;;44.95;16.52;;;;;;;;;;5018668;28;20068;-78
2023/02/07 08:07:04;;;;;;;41.95;17.38;;;;;;;;;;5038614;28;20060;-78
2023/02/07 08:09:31;;;;;;;45.15;17.10;;;;;;;;;;5035207;28;20065;-78
2023/02/07 08:11:57;;;;;;;48.08;18.60;;;;;;;;;;5032220;28;20103;-78
2023/02/07 08:14:24;;;;;;;50.13;19.92;;;;;;;;;;5020367;28;20362;-79
2023/02/07 08:16:50;;;;;;;52.92;21.23;;;;;;;;;;5011828;28;20154;-79
2023/02/07 08:19:16;;;;;;;55.28;20.38;;;;;;;;;;5012479;28;20054;-79
2023/02/07 08:21:43;;;;;;;49.53;19.67;;;;;;;;;;5012414;28;20057;-78
2023/02/07 08:24:10;;;;;;;58.53;22.02;;;;;;;;;;5012611;28;20669;-79
2023/02/07 08:26:36;;;;;;;61.88;23.13;;;;;;;;;;5012891;28;20046;-79
2023/02/07 08:29:03;;;;;;;58.85;21.73;;;;;;;;;;5012391;28;20057;-78
2023/02/07 08:31:29;;;;;;;51.92;20.80;;;;;;;;;;5012903;28;20525;-79
2023/02/07 08:33:55;;;;;;;61.30;24.08;;;;;;;;;;5012665;28;20136;-79
2023/02/07 08:36:22;;;;;;;57.35;23.48;;;;;;;;;;5013374;28;20076;-79
2023/02/07 08:38:49;;;;;;;62.22;23.85;;;;;;;;;;5012360;28;20073;-79
2023/02/07 08:41:15;;;;;;;64.80;24.02;;;;;;;;;;5015876;28;20046;-79
2023/02/07 08:43:42;;;;;;;77.05;26.85;;;;;;;;;;4996879;28;20452;-79
2023/02/07 08:46:08;;;;;;;65.65;26.52;;;;;;;;;;5014106;28;20046;-79
2023/02/07 08:48:35;;;;;;;71.03;25.10;;;;;;;;;;5013221;28;20050;-80
2023/02/07 08:51:05;;;;;;;54.35;22.48;;;;;;;;;;5022740;28;20092;-80
2023/02/07 08:53:31;;;;;;;49.03;20.10;;;;;;;;;;4996512;28;20070;-79
2023/02/07 08:55:58;;;;;;;42.42;18.13;;;;;;;;;;4997696;28;20051;-79
2023/02/07 08:58:24;;;;;;;44.67;16.58;;;;;;;;;;4997524;28;20456;-80
2023/02/07 09:00:51;;;;;;;43.00;17.58;;;;;;;;;;4996289;28;20058;-79
2023/02/07 09:03:17;;;;;;;41.95;17.20;;;;;;;;;;4996189;28;20054;-80
2023/02/07 09:05:44;;;;;;;42.13;16.70;;;;;;;;;;4979722;28;20057;-80
2023/02/07 09:08:10;;;;;;;50.95;18.25;;;;;;;;;;4997143;28;20057;-80
2023/02/07 09:10:37;;;;;;;40.67;16.80;;;;;;;;;;5003976;28;20418;-80
2023/02/07 09:13:10;;;;;;;41.63;16.17;;;;;;;;;;5006557;28;20122;-81
2023/02/07 09:15:36;;;;;;;36.75;16.08;;;;;;;;;;4981990;28;20073;-80
2023/02/07 09:18:03;;;;;;;32.85;15.00;;;;;;;;;;4998535;28;20056;-80
2023/02/07 09:20:29;;;;;;;37.17;16.05;;;;;;;;;;4999879;28;20056;-80
2023/02/07 09:25:40;;;;;;;36.17;15.77;;;;;;;;;;4999872;28;20047;-81
2023/02/07 09:28:08;;;;;;;36.28;15.63;;;;;;;;;;4999394;28;20315;-80
2023/02/07 09:30:34;;;;;;;33.40;15.43;;;;;;;;;;4998844;28;20042;-80
2023/02/07 09:33:01;;;;;;;35.63;15.40;;;;;;;;;;4999839;28;20054;-80
2023/02/07 09:35:27;;;;;;;33.65;15.63;;;;;;;;;;5001203;28;20055;-81
2023/02/07 09:37:54;;;;;;;35.10;15.75;;;;;;;;;;4997977;28;20060;-79
2023/02/07 09:40:21;;;;;;;36.15;15.88;;;;;;;;;;4999056;28;20089;-81
2023/02/07 09:42:55;;;;;;;35.22;15.32;;;;;;;;;;4998956;28;20500;-81
2023/02/07 09:45:24;;;;;;;33.90;15.23;;;;;;;;;;4998707;28;20474;-80
2023/02/07 09:47:53;;;;;;;34.72;16.00;;;;;;;;;;4999069;28;20160;-81
2023/02/07 09:50:35;;;;;;;39.10;15.98;;;;;;;;;;5023977;28;20171;-81
2023/02/07 09:53:07;;;;;;;32.58;14.75;;;;;;;;;;5035884;28;20518;-80
2023/02/07 09:55:43;;;;;;;31.98;15.18;;;;;;;;;;5040334;28;20049;-80
2023/02/07 09:58:16;;;;;;;35.72;14.73;;;;;;;;;;5040721;28;20064;-80
2023/02/07 10:00:44;;;;;;;31.05;15.25;;;;;;;;;;5032415;28;20088;-80
2023/02/07 10:03:17;;;;;;;32.28;15.13;;;;;;;;;;5021317;28;20487;-81
2023/02/07 10:05:44;;;;;;;32.38;15.93;;;;;;;;;;5022229;28;20081;-82
2023/02/07 10:08:12;;;;;;;33.63;14.73;;;;;;;;;;5019289;28;20061;-80
2023/02/07 10:10:44;;;;;;;38.65;15.40;;;;;;;;;;5020354;28;20105;-81
2023/02/07 10:13:23;;;;;;;35.35;15.45;;;;;;;;;;5020568;28;20050;-79
2023/02/07 10:16:07;;;;;;;30.15;14.30;;;;;;;;;;5019956;28;20054;-79
2023/02/07 10:18:41;;;;;;;35.03;16.37;;;;;;;;;;5021925;28;20274;-82
2023/02/07 10:21:10;;;;;;;30.85;15.57;;;;;;;;;;5023283;28;20058;-81
2023/02/07 10:23:41;;;;;;;33.70;15.35;;;;;;;;;;5023504;28;20053;-82
2023/02/07 10:26:26;;;;;;;36.63;16.13;;;;;;;;;;5023794;28;20514;-82
2023/02/07 10:28:55;;;;;;;29.13;13.57;;;;;;;;;;5023467;28;20042;-81
2023/02/07 10:31:23;;;;;;;26.92;13.35;;;;;;;;;;5023723;28;20042;-82
2023/02/07 10:33:57;;;;;;;30.95;12.75;;;;;;;;;;5023661;28;20054;-81
2023/02/07 10:36:23;;;;;;;20.42;9.93;;;;;;;;;;5006352;28;20132;-82
2023/02/07 10:38:53;;;;;;;25.88;12.55;;;;;;;;;;5021210;28;20049;-82
2023/02/07 10:41:36;;;;;;;24.88;12.75;;;;;;;;;;5022935;28;20104;-81
2023/02/07 10:44:09;;;;;;;30.90;14.45;;;;;;;;;;5021941;28;20053;-80
2023/02/07 10:46:36;;;;;;;26.67;14.18;;;;;;;;;;5021370;28;20046;-81
2023/02/07 10:49:02;;;;;;;32.15;15.05;;;;;;;;;;5020553;28;20061;-82
2023/02/07 10:51:34;;;;;;;26.58;12.68;;;;;;;;;;5033993;28;20045;-81
2023/02/07 10:54:08;;;;;;;27.25;12.63;;;;;;;;;;5040134;28;20093;-80
2023/02/07 10:56:39;;;;;;;29.55;13.98;;;;;;;;;;5040511;28;20080;-81
2023/02/07 10:59:28;;;;;;;25.35;11.43;;;;;;;;;;5039209;28;20181;-81
2023/02/07 11:01:54;;;;;;;22.33;12.20;;;;;;;;;;5040303;28;20138;-82
2023/02/07 11:04:22;;;;;;;22.75;12.10;;;;;;;;;;5039359;28;20457;-80
2023/02/07 11:06:58;;;;;;;23.08;12.05;;;;;;;;;;5039574;28;20115;-82
2023/02/07 11:09:25;;;;;;;24.55;12.43;;;;;;;;;;5037139;28;20042;-82
2023/02/07 11:11:53;;;;;;;23.10;12.30;;;;;;;;;;5038325;28;20084;-80
2023/02/07 11:14:25;;;;;;;24.52;12.07;;;;;;;;;;5027019;28;20081;-82
2023/02/07 11:16:53;;;;;;;19.38;11.60;;;;;;;;;;5016999;28;20062;-81
2023/02/07 11:19:23;;;;;;;27.13;13.85;;;;;;;;;;5016799;28;20050;-81
2023/02/07 11:21:50;;;;;;;20.85;11.63;;;;;;;;;;5018707;28;20125;-80
2023/02/07 11:24:24;;;;;;;20.77;11.90;;;;;;;;;;5017483;28;20122;-81
2023/02/07 11:27:12;;;;;;;21.08;11.07;;;;;;;;;;5018475;28;20578;-81
2023/02/07 11:29:43;;;;;;;22.73;11.63;;;;;;;;;;5016568;28;20042;-81
2023/02/07 11:32:12;;;;;;;21.83;11.80;;;;;;;;;;5018260;28;20046;-82
2023/02/07 11:34:47;;;;;;;24.95;12.10;;;;;;;;;;5018475;28;20053;-81
2023/02/07 11:37:16;;;;;;;19.88;10.02;;;;;;;;;;5000333;28;20050;-81
2023/02/07 11:39:43;;;;;;;20.67;11.48;;;;;;;;;;5017479;28;20042;-80
2023/02/07 11:42:12;;;;;;;18.27;9.65;;;;;;;;;;5017128;28;20138;-81
2023/02/07 11:44:41;;;;;;;17.42;9.13;;;;;;;;;;5016177;28;20046;-81
2023/02/07 11:47:12;;;;;;;17.70;9.38;;;;;;;;;;5015453;28;20050;-81
2023/02/07 11:49:41;;;;;;;18.27;10.32;;;;;;;;;;5019389;28;20067;-82
2023/02/07 11:52:08;;;;;;;18.65;10.10;;;;;;;;;;5025783;28;20159;-81
2023/02/07 11:54:35;;;;;;;18.13;10.38;;;;;;;;;;5032529;28;20061;-83
2023/02/07 11:57:03;;;;;;;22.08;11.23;;;;;;;;;;5034481;28;20049;-79
2023/02/07 11:59:33;;;;;;;19.77;10.30;;;;;;;;;;5035611;28;20054;-83
2023/02/07 12:02:05;;;;;;;20.20;10.05;;;;;;;;;;5034840;28;20052;-81
2023/02/07 12:04:36;;;;;;;17.70;9.45;;;;;;;;;;5036784;28;20113;-82
2023/02/07 12:07:08;;;;;;;20.67;10.32;;;;;;;;;;5036343;28;20153;-81
2023/02/07 12:09:39;;;;;;;18.10;10.10;;;;;;;;;;5037089;28;20057;-83
2023/02/07 12:12:13;;;;;;;18.50;10.70;;;;;;;;;;5036248;28;20140;-83
2023/02/07 12:14:46;;;;;;;20.42;11.02;;;;;;;;;;5021776;28;20073;-81
2023/02/07 12:17:17;;;;;;;20.50;11.23;;;;;;;;;;5016221;28;20050;-81
2023/02/07 12:19:54;;;;;;;22.38;11.77;;;;;;;;;;5015368;28;20078;-83
2023/02/07 12:22:24;;;;;;;23.95;12.77;;;;;;;;;;4997942;28;20056;-81
2023/02/07 12:24:53;;;;;;;19.15;10.90;;;;;;;;;;5014816;28;20069;-81
2023/02/07 12:27:25;;;;;;;24.52;11.65;;;;;;;;;;5015533;28;20050;-81
2023/02/07 12:30:00;;;;;;;21.15;11.10;;;;;;;;;;4997833;28;20050;-81
2023/02/07 12:32:45;;;;;;;20.05;10.48;;;;;;;;;;5014463;28;20156;-80
2023/02/07 12:35:24;;;;;;;20.80;11.45;;;;;;;;;;5016032;28;20061;-80
2023/02/07 12:38:03;;;;;;;21.63;11.45;;;;;;;;;;5013813;28;20558;-82
2023/02/07 12:40:33;;;;;;;22.58;11.80;;;;;;;;;;5014397;28;20054;-81
2023/02/07 12:43:09;;;;;;;22.90;12.95;;;;;;;;;;5015178;28;20141;-82
2023/02/07 12:45:36;;;;;;;25.58;14.57;;;;;;;;;;5016576;28;20052;-80
2023/02/07 12:48:22;;;;;;;27.48;14.55;;;;;;;;;;5016309;28;20084;-80
2023/02/07 12:50:48;;;;;;;28.03;14.67;;;;;;;;;;5022840;28;20056;-81
2023/02/07 12:53:18;;;;;;;29.08;14.73;;;;;;;;;;4999037;28;20113;-80
2023/02/07 12:55:50;;;;;;;28.95;14.38;;;;;;;;;;5014243;28;20049;-84
2023/02/07 12:58:41;;;;;;;27.13;14.70;;;;;;;;;;5022812;28;20042;-82
2023/02/07 13:01:14;;;;;;;29.35;16.13;;;;;;;;;;5029820;28;20069;-81
2023/02/07 13:03:51;;;;;;;31.45;15.85;;;;;;;;;;5018779;28;20053;-80
2023/02/07 13:06:17;;;;;;;26.98;14.85;;;;;;;;;;5013454;28;20049;-80
2023/02/07 13:08:53;;;;;;;34.83;16.50;;;;;;;;;;5013994;28;20054;-80
2023/02/07 13:11:38;;;;;;;33.17;15.68;;;;;;;;;;5014934;28;20503;-80
2023/02/07 13:14:23;;;;;;;31.97;14.70;;;;;;;;;;5014379;28;20050;-80
2023/02/07 13:16:55;;;;;;;35.35;15.73;;;;;;;;;;5015070;28;20050;-81
2023/02/07 13:19:24;;;;;;;34.25;15.82;;;;;;;;;;5013499;28;20056;-81
2023/02/07 13:21:51;;;;;;;36.58;15.98;;;;;;;;;;5015188;28;20344;-82
2023/02/07 13:24:18;;;;;;;38.65;16.40;;;;;;;;;;5013757;28;20050;-80
2023/02/07 13:26:48;;;;;;;38.75;16.85;;;;;;;;;;5015878;28;20046;-81
2023/02/07 13:29:15;;;;;;;39.53;16.48;;;;;;;;;;5014953;28;20045;-81
2023/02/07 13:31:44;;;;;;;38.38;15.52;;;;;;;;;;4998059;28;20085;-81
2023/02/07 13:34:24;;;;;;;37.03;16.00;;;;;;;;;;5015498;28;20049;-80
2023/02/07 13:36:51;;;;;;;36.67;14.70;;;;;;;;;;5014373;28;20072;-81
2023/02/07 13:39:21;;;;;;;38.53;16.65;;;;;;;;;;4996486;28;20347;-81
2023/02/07 13:41:58;;;;;;;33.90;15.48;;;;;;;;;;5017804;28;20065;-82
2023/02/07 13:44:44;;;;;;;42.88;17.38;;;;;;;;;;5000896;28;20077;-79
2023/02/07 13:47:22;;;;;;;45.25;17.77;;;;;;;;;;5022445;28;20109;-80
2023/02/07 13:49:53;;;;;;;38.60;17.58;;;;;;;;;;5020599;28;20046;-80
2023/02/07 13:52:31;;;;;;;43.40;17.42;;;;;;;;;;5022467;28;20056;-79
2023/02/07 13:55:16;;;;;;;43.35;17.88;;;;;;;;;;5035255;28;20059;-81
2023/02/07 14:00:28;;;;;;;;;;;;;;;;;;5032103;28;20045;-79
2023/02/07 14:02:59;;;;;;;41.10;16.92;;;;;;;;;;5031863;28;19943;-80
2023/02/07 14:05:25;;;;;;;47.85;18.27;;;;;;;;;;5033073;28;20057;-78
2023/02/07 14:07:56;;;;;;;38.55;17.67;;;;;;;;;;5031473;28;20060;-80
2023/02/07 14:10:38;;;;;;;44.55;18.08;;;;;;;;;;5032542;28;20124;-80
2023/02/07 14:13:04;;;;;;;41.38;17.67;;;;;;;;;;5033950;28;20046;-80
2023/02/07 14:15:33;;;;;;;44.97;19.15;;;;;;;;;;4993267;28;20058;-79
2023/02/07 14:17:59;;;;;;;43.95;18.45;;;;;;;;;;4990960;28;20085;-80
2023/02/07 14:20:35;;;;;;;48.65;18.77;;;;;;;;;;4991863;28;20046;-80
2023/02/07 14:23:05;;;;;;;40.67;18.23;;;;;;;;;;4993603;28;20050;-80
2023/02/07 14:25:32;;;;;;;41.80;18.60;;;;;;;;;;5014648;28;20458;-80
2023/02/07 14:28:01;;;;;;;42.75;17.73;;;;;;;;;;5014440;28;20502;-81
2023/02/07 14:30:29;;;;;;;41.97;17.80;;;;;;;;;;5018160;28;20173;-81
2023/02/07 14:33:05;;;;;;;46.45;19.02;;;;;;;;;;5013237;28;20105;-80
2023/02/07 14:35:36;;;;;;;38.47;18.42;;;;;;;;;;5013627;28;20050;-78
2023/02/07 14:38:05;;;;;;;38.90;18.02;;;;;;;;;;5013106;28;20044;-80